Time;durP1;ratioP1;P1;durP2;ratioP2;P2;SDS_P1;SDS_P2;PMS_P1;PMS_P2;Temp;Humidity;BMP_temperature;BMP_pressure;BME280_temperature;BME280_humidity;BME280_pressure;Samples;Min_cycle;Max_cycle;Signal;HPM_P1;HPM_P2
2021/08/25 00:00:19;;;;;;;6.70;5.53;;;15.40;99.90;;;;;;4966672;28;20872;-81
2021/08/25 00:02:46;;;;;;;5.70;5.20;;;15.40;99.90;;;;;;4966538;28;20235;-84
2021/08/25 00:05:15;;;;;;;5.97;5.27;;;15.40;99.90;;;;;;4973142;28;20257;-84
2021/08/25 00:07:41;;;;;;;7.37;5.90;;;15.40;99.90;;;;;;4974764;28;20586;-86
2021/08/25 00:10:09;;;;;;;7.47;5.40;;;15.40;99.90;;;;;;4973752;28;20208;-79
2021/08/25 00:12:36;;;;;;;7.27;5.23;;;15.30;99.90;;;;;;4972494;28;20632;-80
2021/08/25 00:15:04;;;;;;;6.70;5.97;;;15.30;99.90;;;;;;4973819;28;20204;-86
2021/08/25 00:17:31;;;;;;;6.10;5.43;;;15.30;99.90;;;;;;4974451;28;20197;-84
2021/08/25 00:19:58;;;;;;;7.93;5.83;;;15.30;99.90;;;;;;4988709;28;20303;-86
2021/08/25 00:22:26;;;;;;;9.73;6.70;;;15.30;99.90;;;;;;4992509;28;20231;-86
2021/08/25 00:24:53;;;;;;;9.97;6.53;;;15.30;99.90;;;;;;4994183;28;20513;-84
2021/08/25 00:27:20;;;;;;;7.60;5.87;;;15.30;99.90;;;;;;4989661;28;20220;-84
2021/08/25 00:29:47;;;;;;;6.80;5.93;;;15.20;99.90;;;;;;4972607;28;20589;-80
2021/08/25 00:32:13;;;;;;;7.30;5.57;;;15.30;99.90;;;;;;4972813;28;20204;-85
2021/08/25 00:34:40;;;;;;;6.60;5.50;;;15.20;99.90;;;;;;4973896;28;20220;-86
2021/08/25 00:37:07;;;;;;;5.77;5.20;;;15.20;99.90;;;;;;4973089;28;20620;-86
2021/08/25 00:39:35;;;;;;;6.47;5.87;;;15.20;99.90;;;;;;4973232;28;20216;-82
2021/08/25 00:42:02;;;;;;;6.87;5.57;;;15.20;99.90;;;;;;4973129;28;20220;-83
2021/08/25 00:44:29;;;;;;;6.90;5.67;;;15.20;99.90;;;;;;4973219;28;20208;-85
2021/08/25 00:46:56;;;;;;;7.93;7.10;;;15.10;99.90;;;;;;4972498;28;20208;-85
2021/08/25 00:49:23;;;;;;;11.47;6.07;;;15.10;99.90;;;;;;4973064;28;20200;-78
2021/08/25 00:51:50;;;;;;;9.20;6.70;;;15.10;99.90;;;;;;4971684;28;20672;-85
2021/08/25 00:54:19;;;;;;;9.07;6.10;;;15.10;99.90;;;;;;4971358;28;20239;-79
2021/08/25 00:56:49;;;;;;;7.03;5.27;;;15.10;99.90;;;;;;4971822;28;20297;-85
2021/08/25 00:59:18;;;;;;;5.13;4.60;;;15.10;99.90;;;;;;4971058;28;20197;-85
2021/08/25 01:01:58;;;;;;;8.30;6.03;;;15.00;99.90;;;;;;4971455;28;20317;-80
2021/08/25 01:04:31;;;;;;;5.67;5.07;;;15.00;99.90;;;;;;4970332;28;20248;-79
2021/08/25 01:06:59;;;;;;;9.43;6.43;;;15.00;99.90;;;;;;4969318;28;20201;-80
2021/08/25 01:09:25;;;;;;;6.73;5.80;;;14.90;99.90;;;;;;4970803;28;20224;-85
2021/08/25 01:12:00;;;;;;;8.30;6.50;;;15.00;99.90;;;;;;4969883;28;20761;-84
2021/08/25 01:14:28;;;;;;;7.80;7.00;;;15.00;99.90;;;;;;4969868;28;20275;-78
2021/08/25 01:16:55;;;;;;;8.07;6.03;;;15.00;99.90;;;;;;4968858;28;20212;-78
2021/08/25 01:19:22;;;;;;;10.43;6.27;;;15.00;99.90;;;;;;4985529;28;20223;-81
2021/08/25 01:21:49;;;;;;;8.20;6.57;;;14.90;99.90;;;;;;4989391;28;20247;-86
2021/08/25 01:24:19;;;;;;;6.70;5.83;;;14.90;99.90;;;;;;4973423;28;20208;-83
2021/08/25 01:26:50;;;;;;;6.33;5.73;;;14.90;99.90;;;;;;4972344;28;20225;-86
2021/08/25 01:29:25;;;;;;;7.67;6.23;;;14.90;99.90;;;;;;4973041;28;20212;-86
2021/08/25 01:31:52;;;;;;;5.60;4.97;;;14.90;99.90;;;;;;4973025;28;20220;-83
2021/08/25 01:34:19;;;;;;;7.60;5.47;;;14.90;99.90;;;;;;4972277;28;20200;-86
2021/08/25 01:36:49;;;;;;;5.83;5.10;;;14.90;99.90;;;;;;5005067;23;20251;-86
2021/08/25 01:39:16;;;;;;;6.23;5.37;;;14.80;99.90;;;;;;5012154;28;20218;-80
2021/08/25 01:41:43;;;;;;;6.83;6.13;;;14.80;99.90;;;;;;4999202;28;20211;-85
2021/08/25 01:44:10;;;;;;;8.00;5.90;;;14.80;99.90;;;;;;4993038;28;20212;-85
2021/08/25 01:46:40;;;;;;;6.57;5.80;;;14.80;99.90;;;;;;4993058;28;20227;-87
2021/08/25 01:49:08;;;;;;;6.03;5.43;;;14.80;99.90;;;;;;4991493;28;20215;-80
2021/08/25 01:51:37;;;;;;;6.47;5.87;;;14.80;99.90;;;;;;4992739;28;20200;-86
2021/08/25 01:54:05;;;;;;;10.50;6.00;;;14.80;99.90;;;;;;4996224;28;20207;-85
2021/08/25 01:56:32;;;;;;;8.23;6.33;;;14.80;99.90;;;;;;4999603;28;20609;-80
2021/08/25 01:59:01;;;;;;;6.13;5.17;;;14.70;99.90;;;;;;4987806;28;20212;-78
2021/08/25 02:01:28;;;;;;;5.53;4.67;;;14.70;99.90;;;;;;4988582;28;20200;-85
2021/08/25 02:03:58;;;;;;;7.30;5.57;;;14.70;99.90;;;;;;4988080;28;20235;-79
2021/08/25 02:06:25;;;;;;;6.17;5.57;;;14.60;99.90;;;;;;4988562;28;20210;-86
2021/08/25 02:08:52;;;;;;;6.30;5.67;;;14.60;99.90;;;;;;4988214;28;20219;-80
2021/08/25 02:11:18;;;;;;;7.00;5.60;;;14.60;99.90;;;;;;4988853;28;20196;-81
2021/08/25 02:13:45;;;;;;;5.97;5.43;;;14.60;99.90;;;;;;4988435;28;20204;-80
2021/08/25 02:16:12;;;;;;;7.77;6.47;;;14.60;99.90;;;;;;4987808;28;20639;-79
2021/08/25 02:18:39;;;;;;;6.10;5.33;;;14.60;99.90;;;;;;4987883;28;20232;-81
2021/08/25 02:21:07;;;;;;;9.53;7.00;;;14.50;99.90;;;;;;4988027;28;20204;-83
2021/08/25 02:23:34;;;;;;;7.47;6.33;;;14.50;99.90;;;;;;4988470;28;20231;-79
2021/08/25 02:26:00;;;;;;;8.63;7.47;;;14.50;99.90;;;;;;4989023;28;20212;-82
2021/08/25 02:28:27;;;;;;;10.67;7.50;;;14.50;99.90;;;;;;4994066;28;20204;-88
2021/08/25 02:30:54;;;;;;;8.93;7.97;;;14.50;99.90;;;;;;5007830;28;20240;-85
2021/08/25 02:33:21;;;;;;;7.97;7.17;;;14.50;99.90;;;;;;5007582;28;20207;-79
2021/08/25 02:35:48;;;;;;;8.07;7.30;;;14.50;99.90;;;;;;5008930;28;20235;-83
2021/08/25 02:38:16;;;;;;;11.67;7.80;;;14.50;99.90;;;;;;4996881;28;20219;-85
2021/08/25 02:40:44;;;;;;;11.63;8.43;;;14.50;99.90;;;;;;4989037;28;20227;-85
2021/08/25 02:43:10;;;;;;;7.70;7.00;;;14.50;99.90;;;;;;4987797;28;20231;-87
2021/08/25 02:45:37;;;;;;;8.20;7.07;;;14.50;99.90;;;;;;4988604;28;20623;-78
2021/08/25 02:48:05;;;;;;;7.07;6.37;;;14.50;99.90;;;;;;4989680;28;20210;-82
2021/08/25 02:50:32;;;;;;;9.67;8.10;;;14.50;99.90;;;;;;4989005;28;20215;-85
2021/08/25 02:52:58;;;;;;;10.07;9.07;;;14.50;99.90;;;;;;4989482;28;20200;-82
2021/08/25 02:55:27;;;;;;;10.63;9.27;;;14.50;99.90;;;;;;4989926;28;20208;-82
2021/08/25 02:57:53;;;;;;;13.50;10.73;;;14.50;99.90;;;;;;4989215;28;20211;-81
2021/08/25 03:00:20;;;;;;;10.13;9.00;;;14.50;99.90;;;;;;4990361;28;20206;-87
2021/08/25 03:02:47;;;;;;;9.90;8.50;;;14.40;99.90;;;;;;4990088;28;20231;-81
2021/08/25 03:05:14;;;;;;;9.53;8.37;;;14.40;99.90;;;;;;4988968;28;20215;-87
2021/08/25 03:07:40;;;;;;;12.77;8.50;;;14.40;99.90;;;;;;4989460;28;20211;-78
2021/08/25 03:10:08;;;;;;;12.73;11.43;;;14.40;99.90;;;;;;4989995;28;20685;-85
2021/08/25 03:12:37;;;;;;;9.87;8.27;;;14.40;99.90;;;;;;4988938;28;20203;-81
2021/08/25 03:15:04;;;;;;;11.37;9.07;;;14.40;99.90;;;;;;4988765;28;20556;-81
2021/08/25 03:17:31;;;;;;;10.40;9.30;;;14.40;99.90;;;;;;4996907;28;20210;-79
2021/08/25 03:19:58;;;;;;;9.63;8.63;;;14.40;99.90;;;;;;5008850;28;20202;-84
2021/08/25 03:22:25;;;;;;;9.70;7.83;;;14.40;99.90;;;;;;5009432;28;20223;-81
2021/08/25 03:24:51;;;;;;;10.63;9.63;;;14.40;99.90;;;;;;5008580;28;20231;-86
2021/08/25 03:27:18;;;;;;;9.03;8.23;;;14.40;99.90;;;;;;5009346;28;20218;-84
2021/08/25 03:29:47;;;;;;;9.37;8.37;;;14.40;99.90;;;;;;5009052;28;20230;-82
2021/08/25 03:32:13;;;;;;;10.90;9.00;;;14.40;99.90;;;;;;5008249;28;20526;-82
2021/08/25 03:34:40;;;;;;;8.90;7.97;;;14.40;99.90;;;;;;4997013;28;20218;-85
2021/08/25 03:37:07;;;;;;;8.00;7.23;;;14.30;99.90;;;;;;4986614;28;20823;-84
2021/08/25 03:39:34;;;;;;;7.60;6.90;;;14.30;99.90;;;;;;4991318;28;20833;-83
2021/08/25 03:42:01;;;;;;;9.63;8.63;;;14.30;99.90;;;;;;4992552;28;20200;-85
2021/08/25 03:44:28;;;;;;;8.93;8.07;;;14.20;99.90;;;;;;4992807;28;20230;-78
2021/08/25 03:46:56;;;;;;;9.50;8.53;;;14.20;99.90;;;;;;4991990;28;20230;-84
2021/08/25 03:49:23;;;;;;;6.10;5.60;;;14.20;99.90;;;;;;4992377;28;20230;-86
2021/08/25 03:51:50;;;;;;;7.97;7.17;;;14.10;99.90;;;;;;4990347;28;20518;-79
2021/08/25 03:54:17;;;;;;;8.70;7.37;;;14.10;99.90;;;;;;4990338;28;20208;-82
2021/08/25 03:56:43;;;;;;;7.00;6.40;;;14.00;99.90;;;;;;4995162;28;20218;-79
2021/08/25 03:59:10;;;;;;;6.83;6.23;;;14.00;99.90;;;;;;5009760;28;20207;-80
2021/08/25 04:01:37;;;;;;;7.70;6.93;;;14.00;99.90;;;;;;5011250;28;20203;-83
2021/08/25 04:04:07;;;;;;;7.03;6.33;;;13.90;99.90;;;;;;5011990;28;20733;-80
2021/08/25 04:06:34;;;;;;;7.93;7.03;;;13.90;99.90;;;;;;5012721;28;20215;-85
2021/08/25 04:09:00;;;;;;;7.33;6.20;;;13.90;99.90;;;;;;5012313;28;20206;-82
2021/08/25 04:11:27;;;;;;;6.77;6.17;;;13.80;99.90;;;;;;5001755;28;20215;-85
2021/08/25 04:13:54;;;;;;;6.33;5.73;;;13.80;99.90;;;;;;4992352;28;20254;-85
2021/08/25 04:16:21;;;;;;;5.40;4.90;;;13.70;99.90;;;;;;4993782;28;22375;-87
2021/08/25 04:18:48;;;;;;;5.83;5.33;;;13.70;99.90;;;;;;4993215;28;20192;-83
2021/08/25 04:21:16;;;;;;;5.90;5.40;;;13.70;99.90;;;;;;4993293;28;20215;-83
2021/08/25 04:23:43;;;;;;;6.30;5.23;;;13.60;99.90;;;;;;5008605;28;20814;-87
2021/08/25 04:26:10;;;;;;;7.33;6.63;;;13.60;99.90;;;;;;5013490;28;20618;-86
2021/08/25 04:28:39;;;;;;;5.27;4.80;;;13.70;99.90;;;;;;5012735;28;20286;-86
2021/08/25 04:31:07;;;;;;;4.97;4.47;;;13.60;99.90;;;;;;4996853;28;20211;-79
2021/08/25 04:33:34;;;;;;;6.23;5.63;;;13.60;99.90;;;;;;4992747;28;20212;-84
2021/08/25 04:36:01;;;;;;;5.80;5.20;;;13.60;99.90;;;;;;4997427;28;20685;-85
2021/08/25 04:38:29;;;;;;;5.73;4.97;;;13.60;99.90;;;;;;5012858;28;20192;-84
2021/08/25 04:40:58;;;;;;;6.27;5.67;;;13.50;99.90;;;;;;5004800;28;20246;-87
2021/08/25 04:43:25;;;;;;;5.60;5.10;;;13.50;99.90;;;;;;4992558;28;20232;-82
2021/08/25 04:45:52;;;;;;;6.63;5.60;;;13.50;99.90;;;;;;4992708;28;20502;-85
2021/08/25 04:48:18;;;;;;;5.40;4.90;;;13.50;99.90;;;;;;4992631;28;20207;-87
2021/08/25 04:50:46;;;;;;;6.00;5.37;;;13.50;99.90;;;;;;4991693;28;20211;-86
2021/08/25 04:53:12;;;;;;;5.90;5.30;;;13.40;99.90;;;;;;4992854;28;20204;-86
2021/08/25 04:55:41;;;;;;;4.87;4.47;;;13.40;99.90;;;;;;4993217;28;20204;-82
2021/08/25 04:58:08;;;;;;;5.77;5.13;;;13.40;99.90;;;;;;4992134;28;20212;-81
2021/08/25 05:00:35;;;;;;;6.60;5.97;;;13.40;99.90;;;;;;4993573;28;20204;-88
2021/08/25 05:03:02;;;;;;;5.50;5.00;;;13.40;99.90;;;;;;4992274;28;20239;-82
2021/08/25 05:05:29;;;;;;;5.60;4.97;;;13.40;99.90;;;;;;4990233;28;20614;-80
2021/08/25 05:07:55;;;;;;;5.47;4.97;;;13.40;99.90;;;;;;4989897;28;20208;-80
2021/08/25 05:10:22;;;;;;;6.33;5.50;;;13.40;99.90;;;;;;4990418;28;20273;-82
2021/08/25 05:12:51;;;;;;;7.37;6.17;;;13.40;99.90;;;;;;4989411;28;20399;-81
2021/08/25 05:15:17;;;;;;;9.17;7.97;;;13.40;99.90;;;;;;4990302;28;20219;-85
2021/08/25 05:17:44;;;;;;;7.63;6.33;;;13.40;99.90;;;;;;4989822;28;20697;-84
2021/08/25 05:20:12;;;;;;;6.53;5.83;;;13.40;99.90;;;;;;5003191;28;20227;-83
2021/08/25 05:22:39;;;;;;;6.80;6.10;;;13.40;99.90;;;;;;5013500;28;20210;-85
2021/08/25 05:25:07;;;;;;;7.43;6.23;;;13.50;99.90;;;;;;5009034;28;20195;-86
2021/08/25 05:27:33;;;;;;;6.13;5.53;;;13.50;99.90;;;;;;4993318;28;20204;-81
2021/08/25 05:30:01;;;;;;;6.97;6.27;;;13.50;99.90;;;;;;5008317;28;20210;-86
2021/08/25 05:32:28;;;;;;;8.23;7.37;;;13.50;99.90;;;;;;5013511;28;20196;-86
2021/08/25 05:34:55;;;;;;;8.73;7.83;;;13.60;99.90;;;;;;5011922;28;20310;-83
2021/08/25 05:37:22;;;;;;;7.43;6.63;;;13.60;99.90;;;;;;5013040;28;20234;-86
2021/08/25 05:39:49;;;;;;;7.23;6.47;;;13.60;99.90;;;;;;5012366;28;20207;-86
2021/08/25 05:42:15;;;;;;;8.50;7.10;;;13.60;99.90;;;;;;5002619;28;20204;-85
2021/08/25 05:44:42;;;;;;;9.83;7.97;;;13.70;99.90;;;;;;4993102;28;20231;-86
2021/08/25 05:47:10;;;;;;;7.57;6.87;;;13.70;99.90;;;;;;4993308;28;20611;-87
2021/08/25 05:49:37;;;;;;;8.77;7.67;;;13.80;99.90;;;;;;5004060;28;20215;-83
2021/08/25 05:52:04;;;;;;;8.30;7.17;;;13.80;99.90;;;;;;5012066;28;20204;-86
2021/08/25 05:54:31;;;;;;;8.60;7.13;;;13.80;99.90;;;;;;5005532;28;20200;-86
2021/08/25 05:56:58;;;;;;;7.70;6.90;;;13.90;99.90;;;;;;4992965;28;20208;-83
2021/08/25 05:59:25;;;;;;;8.07;6.97;;;13.90;99.90;;;;;;4991374;28;20778;-85
2021/08/25 06:01:52;;;;;;;9.90;8.87;;;13.90;99.90;;;;;;4988649;28;20208;-80
2021/08/25 06:04:20;;;;;;;11.97;9.50;;;14.00;99.90;;;;;;4989682;28;20224;-86
2021/08/25 06:06:47;;;;;;;11.50;9.73;;;14.00;99.90;;;;;;4992554;28;20220;-85
2021/08/25 06:09:14;;;;;;;9.73;8.70;;;14.10;99.90;;;;;;4991528;28;20219;-87
2021/08/25 06:11:41;;;;;;;11.10;10.00;;;14.10;99.90;;;;;;4991638;28;20204;-81
2021/08/25 06:14:08;;;;;;;11.60;10.40;;;14.20;99.90;;;;;;4991440;28;20207;-84
2021/08/25 06:16:35;;;;;;;10.87;9.83;;;14.30;99.90;;;;;;4991757;28;20272;-86
2021/08/25 06:19:02;;;;;;;10.77;9.67;;;14.30;99.90;;;;;;4991219;28;20203;-84
2021/08/25 06:21:30;;;;;;;11.90;10.67;;;14.40;99.90;;;;;;4988694;28;20219;-79
2021/08/25 06:23:57;;;;;;;13.07;11.00;;;14.60;99.90;;;;;;4992436;28;20261;-85
2021/08/25 06:26:24;;;;;;;12.90;10.50;;;14.70;99.90;;;;;;4991009;28;20627;-79
2021/08/25 06:28:50;;;;;;;13.57;11.47;;;14.80;99.90;;;;;;4988589;28;20584;-77
2021/08/25 06:31:17;;;;;;;12.77;11.10;;;14.90;99.90;;;;;;4988977;28;20207;-79
2021/08/25 06:33:44;;;;;;;12.67;11.10;;;15.10;99.90;;;;;;4990708;28;20744;-87
2021/08/25 06:36:11;;;;;;;13.83;11.27;;;15.20;99.90;;;;;;5000202;28;20235;-87
2021/08/25 06:38:39;;;;;;;13.02;11.02;;;15.30;99.90;;;;;;5012233;28;20203;-85
2021/08/25 06:41:06;;;;;;;11.37;10.13;;;15.40;99.90;;;;;;5010362;28;20230;-87
2021/08/25 06:43:33;;;;;;;14.47;10.70;;;15.50;99.90;;;;;;5002760;28;20235;-85
2021/08/25 06:46:00;;;;;;;12.20;11.10;;;15.70;99.90;;;;;;4990848;28;20302;-87
2021/08/25 06:48:26;;;;;;;13.03;10.63;;;15.90;99.90;;;;;;4991866;28;20208;-86
2021/08/25 06:50:54;;;;;;;12.88;9.80;;;16.10;99.90;;;;;;4979140;28;20647;-81
2021/08/25 06:53:22;;;;;;;11.75;9.68;;;16.20;99.90;;;;;;5010944;28;20207;-84
2021/08/25 06:55:50;;;;;;;10.52;9.43;;;16.40;99.90;;;;;;4995413;28;20234;-86
2021/08/25 06:58:17;;;;;;;11.88;8.65;;;16.50;99.90;;;;;;4992926;28;20204;-88
2021/08/25 07:00:44;;;;;;;7.95;7.10;;;16.60;99.90;;;;;;4992047;28;20215;-82
2021/08/25 07:03:10;;;;;;;10.68;7.40;;;16.70;99.90;;;;;;4992409;28;20592;-87
2021/08/25 07:05:37;;;;;;;9.90;7.35;;;16.80;99.90;;;;;;5011696;28;20226;-91
2021/08/25 07:08:05;;;;;;;8.93;7.65;;;16.90;99.90;;;;;;5004979;28;20223;-81
2021/08/25 07:10:32;;;;;;;8.98;6.13;;;17.00;99.90;;;;;;5007847;28;20695;-83
2021/08/25 07:13:02;;;;;;;6.82;5.03;;;17.00;99.90;;;;;;4993628;28;20200;-93
2021/08/25 07:15:29;;;;;;;5.82;4.90;;;17.00;99.90;;;;;;5010713;23;20592;-90
2021/08/25 07:17:55;;;;;;;7.43;4.88;;;17.00;99.90;;;;;;5013071;28;20211;-87
2021/08/25 07:20:22;;;;;;;8.60;5.53;;;16.90;99.90;;;;;;5015223;28;20203;-86
2021/08/25 07:22:49;;;;;;;5.40;4.65;;;16.90;99.90;;;;;;5016326;28;20226;-86
2021/08/25 07:25:16;;;;;;;4.82;4.22;;;16.90;99.90;;;;;;5021128;28;20542;-86
2021/08/25 07:27:43;;;;;;;6.80;4.35;;;17.00;99.90;;;;;;5010845;28;20210;-83
2021/08/25 07:30:12;;;;;;;5.95;4.07;;;17.00;99.90;;;;;;5011013;28;20195;-83
2021/08/25 07:32:40;;;;;;;6.15;4.40;;;17.20;99.90;;;;;;5007472;28;20209;-81
2021/08/25 07:35:08;;;;;;;5.07;4.38;;;17.40;99.90;;;;;;4995224;28;20604;-83
2021/08/25 07:37:35;;;;;;;3.85;2.90;;;17.60;99.90;;;;;;4987668;28;20211;-82
2021/08/25 07:40:02;;;;;;;5.60;4.00;;;17.80;99.90;;;;;;4986544;28;20235;-84
2021/08/25 07:42:29;;;;;;;4.53;3.00;;;17.90;99.90;;;;;;4987895;28;20219;-81
2021/08/25 07:44:56;;;;;;;7.05;3.45;;;18.00;99.90;;;;;;4987558;28;20224;-81
2021/08/25 07:47:24;;;;;;;4.50;3.50;;;18.00;99.90;;;;;;4997322;28;20226;-82
2021/08/25 07:49:51;;;;;;;5.90;3.08;;;18.00;99.90;;;;;;5007219;28;20235;-84
2021/08/25 07:52:18;;;;;;;7.13;3.60;;;18.20;99.90;;;;;;4993810;28;20208;-81
2021/08/25 07:54:45;;;;;;;7.10;3.47;;;18.40;99.90;;;;;;4997242;28;20605;-81
2021/08/25 07:57:11;;;;;;;6.82;3.40;;;18.70;99.90;;;;;;4992417;28;20195;-82
2021/08/25 07:59:38;;;;;;;4.85;2.90;;;19.00;99.90;;;;;;4998344;28;20735;-84
2021/08/25 08:02:05;;;;;;;4.82;3.10;;;19.20;99.90;;;;;;4998855;28;20212;-82
2021/08/25 08:04:34;;;;;;;5.55;2.90;;;19.40;99.90;;;;;;4999458;28;20227;-81
2021/08/25 08:07:00;;;;;;;3.47;2.80;;;19.50;99.90;;;;;;5005178;28;20211;-83
2021/08/25 08:09:27;;;;;;;4.95;3.53;;;19.80;99.90;;;;;;5008233;28;20226;-82
2021/08/25 08:11:54;;;;;;;4.43;3.00;;;19.90;99.90;;;;;;5007568;28;20211;-79
2021/08/25 08:14:21;;;;;;;4.95;3.53;;;19.80;99.90;;;;;;5007889;28;20195;-83
2021/08/25 08:16:52;;;;;;;6.88;2.88;;;19.90;99.90;;;;;;5006818;28;20239;-82
2021/08/25 08:19:21;;;;;;;6.13;3.22;;;20.20;99.90;;;;;;4993938;28;20593;-85
2021/08/25 08:21:50;;;;;;;4.47;3.33;;;20.20;99.90;;;;;;4985937;28;20290;-82
2021/08/25 08:24:18;;;;;;;3.50;2.70;;;20.20;99.90;;;;;;4987257;28;20235;-82
2021/08/25 08:26:46;;;;;;;4.50;2.63;;;20.20;99.90;;;;;;4989411;28;20222;-80
2021/08/25 08:29:12;;;;;;;2.72;2.20;;;20.20;99.90;;;;;;4988932;28;20208;-81
2021/08/25 08:31:39;;;;;;;4.47;2.40;;;20.00;99.90;;;;;;4989886;28;20210;-81
2021/08/25 08:34:06;;;;;;;2.83;2.55;;;20.20;99.90;;;;;;4988675;28;20215;-80
2021/08/25 08:36:33;;;;;;;4.72;2.60;;;20.60;99.90;;;;;;4989686;28;20292;-82
2021/08/25 08:39:02;;;;;;;4.25;2.65;;;20.70;99.90;;;;;;4989217;28;20200;-80
2021/08/25 08:41:28;;;;;;;4.00;2.55;;;20.70;99.90;;;;;;4989995;28;20196;-81
2021/08/25 08:43:56;;;;;;;3.25;2.33;;;20.70;99.90;;;;;;4989008;28;20204;-81
2021/08/25 08:46:24;;;;;;;5.00;2.50;;;21.10;99.90;;;;;;4989639;28;20493;-81
2021/08/25 08:48:52;;;;;;;3.13;2.30;;;21.40;99.90;;;;;;4989185;28;20230;-83
2021/08/25 08:51:23;;;;;;;3.40;2.55;;;21.40;99.90;;;;;;4990251;28;20299;-80
2021/08/25 08:53:51;;;;;;;4.75;2.83;;;21.60;99.90;;;;;;4989589;28;20852;-80
2021/08/25 08:56:19;;;;;;;3.35;2.55;;;22.00;99.90;;;;;;4988807;28;20212;-81
2021/08/25 08:58:48;;;;;;;3.08;2.30;;;22.30;99.90;;;;;;4988829;28;20220;-81
2021/08/25 09:01:15;;;;;;;3.92;2.72;;;22.40;99.90;;;;;;4989141;28;20304;-80
2021/08/25 09:03:42;;;;;;;3.03;1.80;;;22.70;99.90;;;;;;4988792;28;20216;-81
2021/08/25 09:06:10;;;;;;;3.92;2.08;;;23.00;99.90;;;;;;4989090;28;20231;-82
2021/08/25 09:08:39;;;;;;;2.22;2.00;;;23.00;99.90;;;;;;4989024;28;20212;-82
2021/08/25 09:11:08;;;;;;;4.40;2.20;;;23.00;99.90;;;;;;4987913;28;20298;-82
2021/08/25 09:13:47;;;;;;;4.20;2.40;;;22.90;99.90;;;;;;4988115;28;20212;-82
2021/08/25 09:16:26;;;;;;;3.40;2.35;;;22.60;99.90;;;;;;4988722;28;20738;-81
2021/08/25 09:19:01;;;;;;;5.50;2.45;;;22.30;99.90;;;;;;4987884;28;20242;-82
2021/08/25 09:21:34;;;;;;;3.95;2.35;;;22.20;99.90;;;;;;4989085;28;20289;-82
2021/08/25 09:24:01;;;;;;;4.60;2.00;;;21.90;99.90;;;;;;5008272;28;20202;-81
2021/08/25 09:26:29;;;;;;;3.88;2.35;;;21.80;99.90;;;;;;5008545;28;20200;-82
2021/08/25 09:29:15;;;;;;;4.38;2.20;;;22.10;99.90;;;;;;5007735;28;20210;-79
2021/08/25 09:31:44;;;;;;;5.05;2.30;;;22.40;99.90;;;;;;5005764;28;20290;-80
2021/08/25 09:34:25;;;;;;;6.60;2.22;;;22.80;99.90;;;;;;5007842;28;20195;-82
2021/08/25 09:37:05;;;;;;;2.53;1.50;;;23.20;99.90;;;;;;4995073;28;20227;-81
2021/08/25 09:39:32;;;;;;;3.67;1.40;;;23.50;99.90;;;;;;4988288;28;20224;-81
2021/08/25 09:41:59;;;;;;;2.95;1.38;;;23.60;99.90;;;;;;4987670;28;20204;-81
2021/08/25 09:44:28;;;;;;;2.03;1.30;;;23.80;99.90;;;;;;5004337;28;20333;-80
2021/08/25 09:46:54;;;;;;;4.68;1.48;;;23.90;99.90;;;;;;5007197;28;20419;-80
2021/08/25 09:49:21;;;;;;;2.50;1.55;;;23.90;99.90;;;;;;5001620;28;20208;-79
2021/08/25 09:51:49;;;;;;;1.92;1.48;;;23.90;99.90;;;;;;4988132;28;20208;-80
2021/08/25 09:54:18;;;;;;;3.20;1.30;;;23.60;99.90;;;;;;4987374;28;20246;-81
2021/08/25 09:56:45;;;;;;;3.30;1.48;;;23.60;99.90;;;;;;4987674;28;20208;-81
2021/08/25 09:59:14;;;;;;;1.98;1.30;;;23.60;99.90;;;;;;4987409;28;20218;-79
2021/08/25 10:01:43;;;;;;;2.88;1.20;;;23.70;99.90;;;;;;4987782;28;20204;-80
2021/08/25 10:04:14;;;;;;;2.10;1.30;;;23.90;99.90;;;;;;4987695;28;20503;-81
2021/08/25 10:06:42;;;;;;;2.33;1.45;;;23.90;99.90;;;;;;4987189;28;20204;-81
2021/08/25 10:09:10;;;;;;;5.47;1.58;;;24.00;99.90;;;;;;4987511;28;20207;-79
2021/08/25 10:11:39;;;;;;;1.67;1.30;;;24.00;99.90;;;;;;4987220;28;20546;-81
2021/08/25 10:14:11;;;;;;;3.38;1.25;;;24.10;99.90;;;;;;4987057;28;20211;-80
2021/08/25 10:16:52;;;;;;;2.03;1.50;;;24.10;99.90;;;;;;4987000;28;20299;-81
2021/08/25 10:19:31;;;;;;;3.95;1.20;;;24.10;99.90;;;;;;4987691;28;20214;-80
2021/08/25 10:22:00;;;;;;;1.45;1.27;;;24.20;99.90;;;;;;4986315;28;20238;-80
2021/08/25 10:24:27;;;;;;;2.53;1.10;;;24.10;99.90;;;;;;4987088;28;20207;-80
2021/08/25 10:27:07;;;;;;;2.72;1.42;;;24.10;99.90;;;;;;4985973;28;20934;-80
2021/08/25 10:29:54;;;;;;;4.15;1.48;;;24.00;99.90;;;;;;4986560;28;20203;-81
2021/08/25 10:32:22;;;;;;;1.65;1.20;;;24.00;99.90;;;;;;4986677;28;20702;-80
2021/08/25 10:35:23;;;;;;;2.03;1.25;;;24.00;99.90;;;;;;4986366;28;20580;-80
2021/08/25 10:37:52;;;;;;;3.03;1.20;;;24.10;99.90;;;;;;4986795;28;20687;-81
2021/08/25 10:40:31;;;;;;;4.30;1.40;;;24.10;99.90;;;;;;4986034;28;20231;-81
2021/08/25 10:43:01;;;;;;;2.08;0.95;;;24.30;99.90;;;;;;4985850;28;20262;-80
2021/08/25 10:45:58;;;;;;;2.38;1.15;;;24.40;99.90;;;;;;4986514;28;20259;-80
2021/08/25 10:49:04;;;;;;;0.85;0.80;;;24.70;99.90;;;;;;4907140;29;20199;-80
2021/08/25 10:51:36;;;;;;;0.95;0.85;;;24.70;99.90;;;;;;4986511;28;20210;-79
2021/08/25 10:54:05;;;;;;;2.83;1.10;;;24.60;99.90;;;;;;4985716;28;20215;-80
2021/08/25 10:56:35;;;;;;;1.20;0.80;;;24.50;99.90;;;;;;4986543;28;20663;-79
2021/08/25 10:59:04;;;;;;;2.20;0.95;;;24.50;99.90;;;;;;4989477;28;20211;-81
2021/08/25 11:01:33;;;;;;;1.52;0.70;;;24.40;99.90;;;;;;5005993;28;20210;-80
2021/08/25 11:04:03;;;;;;;1.10;0.90;;;24.30;99.90;;;;;;5004675;28;20207;-81
2021/08/25 11:06:35;;;;;;;1.02;0.73;;;24.30;99.90;;;;;;5005924;28;20238;-80
2021/08/25 11:09:20;;;;;;;1.92;0.73;;;24.40;99.90;;;;;;4996438;28;20247;-82
2021/08/25 11:11:50;;;;;;;1.20;1.00;;;24.40;99.90;;;;;;4985593;28;20608;-80
2021/08/25 11:14:19;;;;;;;1.92;1.00;;;24.50;99.90;;;;;;4986527;28;20724;-80
2021/08/25 11:16:46;;;;;;;1.50;0.70;;;24.50;99.90;;;;;;4993582;28;20238;-80
2021/08/25 11:19:29;;;;;;;1.63;0.77;;;24.70;99.90;;;;;;5006090;28;20215;-80
2021/08/25 11:21:57;;;;;;;2.08;0.80;;;24.70;99.90;;;;;;5005314;28;20206;-80
2021/08/25 11:24:31;;;;;;;0.75;0.60;;;24.60;99.90;;;;;;4993655;28;21007;-80
2021/08/25 11:26:58;;;;;;;0.80;0.68;;;24.60;99.90;;;;;;4984960;28;20227;-80
2021/08/25 11:29:25;;;;;;;1.58;0.80;;;24.90;99.90;;;;;;4986096;28;20215;-82
2021/08/25 11:31:52;;;;;;;1.73;0.60;;;25.10;99.90;;;;;;4992551;28;20203;-82
2021/08/25 11:34:21;;;;;;;0.75;0.60;;;25.10;99.90;;;;;;5005428;28;20199;-79
2021/08/25 11:37:02;;;;;;;2.17;0.90;;;24.70;99.90;;;;;;5005297;28;20200;-80
2021/08/25 11:39:29;;;;;;;1.25;0.82;;;24.60;99.90;;;;;;4989097;28;20232;-80
2021/08/25 11:41:57;;;;;;;1.65;0.82;;;24.40;99.90;;;;;;4985104;28;20208;-79
2021/08/25 11:44:38;;;;;;;0.60;0.60;;;24.40;99.90;;;;;;4986073;28;20224;-80
2021/08/25 11:47:18;;;;;;;1.63;0.63;;;24.50;99.90;;;;;;4984745;28;20199;-80
2021/08/25 11:49:47;;;;;;;1.65;0.60;;;24.60;99.90;;;;;;4988990;28;20671;-81
2021/08/25 11:52:16;;;;;;;1.08;0.60;;;24.60;99.90;;;;;;4987654;28;20215;-79
2021/08/25 11:54:43;;;;;;;1.35;0.55;;;24.10;99.90;;;;;;4988280;28;20207;-80
2021/08/25 11:57:11;;;;;;;1.20;0.60;;;23.80;99.90;;;;;;4986835;28;20192;-79
2021/08/25 11:59:57;;;;;;;0.88;0.52;;;24.00;99.90;;;;;;4987828;28;20216;-80
2021/08/25 12:02:25;;;;;;;1.77;0.77;;;24.30;99.90;;;;;;4991263;28;20341;-80
2021/08/25 12:04:51;;;;;;;0.80;0.57;;;24.40;99.90;;;;;;5006545;28;20238;-79
2021/08/25 12:07:20;;;;;;;0.65;0.60;;;24.50;99.90;;;;;;5008898;28;20207;-79
2021/08/25 12:09:47;;;;;;;0.68;0.52;;;24.70;99.90;;;;;;5007546;28;20211;-80
2021/08/25 12:12:13;;;;;;;1.17;0.50;;;24.90;99.90;;;;;;5010808;22;20477;-79
2021/08/25 12:14:55;;;;;;;1.20;0.50;;;24.90;99.90;;;;;;4985454;28;20283;-79
2021/08/25 12:17:22;;;;;;;1.20;0.50;;;24.70;99.90;;;;;;4989844;28;20204;-79
2021/08/25 12:20:00;;;;;;;1.85;0.50;;;24.30;99.90;;;;;;4989671;28;20214;-79
2021/08/25 12:22:30;;;;;;;1.05;0.57;;;24.10;99.90;;;;;;4989904;28;20218;-79
2021/08/25 12:24:59;;;;;;;1.10;0.55;;;24.00;99.90;;;;;;4990471;28;20200;-79
2021/08/25 12:27:26;;;;;;;2.05;0.50;;;24.00;99.90;;;;;;4990952;28;20702;-80
2021/08/25 12:29:53;;;;;;;1.00;0.50;;;24.10;99.90;;;;;;4990451;28;20211;-80
2021/08/25 12:32:20;;;;;;;1.52;0.43;;;24.00;99.90;;;;;;4992331;28;20210;-82
2021/08/25 12:34:59;;;;;;;1.60;0.50;;;23.70;99.90;;;;;;4992246;28;20217;-80
2021/08/25 12:37:50;;;;;;;0.55;0.50;;;23.50;99.90;;;;;;4993385;28;20211;-81
2021/08/25 12:40:19;;;;;;;0.50;0.40;;;23.20;99.90;;;;;;4993752;28;20227;-81
2021/08/25 12:42:47;;;;;;;2.85;0.38;;;23.00;99.90;;;;;;4991968;28;20300;-81
2021/08/25 12:45:15;;;;;;;0.40;0.40;;;22.90;99.90;;;;;;5007120;28;20203;-80
2021/08/25 12:47:41;;;;;;;0.93;0.38;;;22.60;99.90;;;;;;5005100;28;20204;-78
2021/08/25 12:50:09;;;;;;;0.40;0.30;;;22.50;99.90;;;;;;4990736;28;20204;-78
2021/08/25 12:52:36;;;;;;;0.82;0.50;;;22.30;99.90;;;;;;4989248;28;20199;-81